sensor_id;sensor_type;location;lat;lon;timestamp;temperature;humidity
4739;DHT22;2383;48.632;10.156;2022-10-24T00:00:21;19.90;99.90
4739;DHT22;2383;48.632;10.156;2022-10-24T00:04:23;20.00;99.90
4739;DHT22;2383;48.632;10.156;2022-10-24T00:08:25;20.10;99.90
4739;DHT22;2383;48.632;10.156;2022-10-24T00:12:27;19.40;99.90
4739;DHT22;2383;48.632;10.156;2022-10-24T00:16:28;19.50;99.90
4739;DHT22;2383;48.632;10.156;2022-10-24T00:20:30;19.90;99.90
4739;DHT22;2383;48.632;10.156;2022-10-24T00:24:32;20.00;99.90
4739;DHT22;2383;48.632;10.156;2022-10-24T00:28:35;20.40;99.90
4739;DHT22;2383;48.632;10.156;2022-10-24T00:32:37;20.00;99.90
4739;DHT22;2383;48.632;10.156;2022-10-24T00:36:39;20.10;99.90
4739;DHT22;2383;48.632;10.156;2022-10-24T00:40:41;20.20;99.90
4739;DHT22;2383;48.632;10.156;2022-10-24T00:44:50;20.10;99.90
4739;DHT22;2383;48.632;10.156;2022-10-24T00:48:53;20.00;99.90
4739;DHT22;2383;48.632;10.156;2022-10-24T00:52:55;19.80;99.90
4739;DHT22;2383;48.632;10.156;2022-10-24T00:57:18;19.90;99.90
4739;DHT22;2383;48.632;10.156;2022-10-24T01:01:23;19.90;99.90
4739;DHT22;2383;48.632;10.156;2022-10-24T01:05:29;20.00;99.90
4739;DHT22;2383;48.632;10.156;2022-10-24T01:18:19;19.80;99.90
4739;DHT22;2383;48.632;10.156;2022-10-24T01:31:02;19.80;99.90
4739;DHT22;2383;48.632;10.156;2022-10-24T01:39:21;19.80;99.90
4739;DHT22;2383;48.632;10.156;2022-10-24T01:43:33;19.70;99.90
4739;DHT22;2383;48.632;10.156;2022-10-24T01:47:42;19.70;99.90
4739;DHT22;2383;48.632;10.156;2022-10-24T01:51:50;19.80;99.90
4739;DHT22;2383;48.632;10.156;2022-10-24T01:55:59;19.50;99.90
4739;DHT22;2383;48.632;10.156;2022-10-24T02:00:06;19.80;99.90
4739;DHT22;2383;48.632;10.156;2022-10-24T02:04:10;19.60;99.90
4739;DHT22;2383;48.632;10.156;2022-10-24T02:08:17;19.70;99.90
4739;DHT22;2383;48.632;10.156;2022-10-24T02:12:20;20.00;99.90
4739;DHT22;2383;48.632;10.156;2022-10-24T02:16:25;19.60;99.90
4739;DHT22;2383;48.632;10.156;2022-10-24T02:25:13;19.40;99.90
4739;DHT22;2383;48.632;10.156;2022-10-24T02:33:41;19.60;99.90
4739;DHT22;2383;48.632;10.156;2022-10-24T02:37:49;19.70;99.90
4739;DHT22;2383;48.632;10.156;2022-10-24T02:41:53;20.00;99.90
4739;DHT22;2383;48.632;10.156;2022-10-24T02:46:10;19.90;99.90
4739;DHT22;2383;48.632;10.156;2022-10-24T02:50:14;19.70;99.90
4739;DHT22;2383;48.632;10.156;2022-10-24T02:54:16;19.80;99.90
4739;DHT22;2383;48.632;10.156;2022-10-24T02:58:18;19.80;99.90
4739;DHT22;2383;48.632;10.156;2022-10-24T03:02:21;19.30;99.90
4739;DHT22;2383;48.632;10.156;2022-10-24T03:06:24;19.30;99.90
4739;DHT22;2383;48.632;10.156;2022-10-24T03:10:25;19.30;99.90
4739;DHT22;2383;48.632;10.156;2022-10-24T03:14:27;19.50;99.90
4739;DHT22;2383;48.632;10.156;2022-10-24T03:18:29;19.60;99.90
4739;DHT22;2383;48.632;10.156;2022-10-24T03:22:31;19.20;99.90
4739;DHT22;2383;48.632;10.156;2022-10-24T03:26:33;19.10;99.90
4739;DHT22;2383;48.632;10.156;2022-10-24T03:30:35;19.40;99.90
4739;DHT22;2383;48.632;10.156;2022-10-24T03:34:37;19.70;99.90
4739;DHT22;2383;48.632;10.156;2022-10-24T03:38:39;19.70;99.90
4739;DHT22;2383;48.632;10.156;2022-10-24T03:42:40;20.00;99.90
4739;DHT22;2383;48.632;10.156;2022-10-24T03:46:42;19.80;99.90
4739;DHT22;2383;48.632;10.156;2022-10-24T03:50:45;19.80;99.90
4739;DHT22;2383;48.632;10.156;2022-10-24T03:54:47;20.10;99.90
4739;DHT22;2383;48.632;10.156;2022-10-24T03:58:49;19.70;99.90
4739;DHT22;2383;48.632;10.156;2022-10-24T04:02:51;19.80;99.90
4739;DHT22;2383;48.632;10.156;2022-10-24T04:06:52;19.70;99.90
4739;DHT22;2383;48.632;10.156;2022-10-24T04:10:54;19.70;99.90
4739;DHT22;2383;48.632;10.156;2022-10-24T04:14:56;19.80;99.90
4739;DHT22;2383;48.632;10.156;2022-10-24T04:19:04;20.00;99.90
4739;DHT22;2383;48.632;10.156;2022-10-24T04:23:06;19.70;99.90
4739;DHT22;2383;48.632;10.156;2022-10-24T04:27:08;19.70;99.90
4739;DHT22;2383;48.632;10.156;2022-10-24T04:31:11;19.40;99.90
4739;DHT22;2383;48.632;10.156;2022-10-24T04:35:12;19.60;99.90
4739;DHT22;2383;48.632;10.156;2022-10-24T04:39:14;19.70;99.90
4739;DHT22;2383;48.632;10.156;2022-10-24T04:43:18;19.90;99.90
4739;DHT22;2383;48.632;10.156;2022-10-24T04:47:20;19.70;99.90
4739;DHT22;2383;48.632;10.156;2022-10-24T04:51:22;19.60;99.90
4739;DHT22;2383;48.632;10.156;2022-10-24T04:55:24;19.50;99.90
4739;DHT22;2383;48.632;10.156;2022-10-24T04:59:26;19.40;99.90
4739;DHT22;2383;48.632;10.156;2022-10-24T05:03:28;19.00;99.90
4739;DHT22;2383;48.632;10.156;2022-10-24T05:07:30;18.90;99.90
4739;DHT22;2383;48.632;10.156;2022-10-24T05:11:33;19.00;99.90
4739;DHT22;2383;48.632;10.156;2022-10-24T05:15:35;18.90;99.90
4739;DHT22;2383;48.632;10.156;2022-10-24T05:19:36;19.00;99.90
4739;DHT22;2383;48.632;10.156;2022-10-24T05:23:40;19.10;99.90
4739;DHT22;2383;48.632;10.156;2022-10-24T05:27:41;19.00;99.90
4739;DHT22;2383;48.632;10.156;2022-10-24T05:31:43;19.00;99.90
4739;DHT22;2383;48.632;10.156;2022-10-24T05:35:45;19.00;99.90
4739;DHT22;2383;48.632;10.156;2022-10-24T05:39:46;18.40;99.90
4739;DHT22;2383;48.632;10.156;2022-10-24T05:43:48;18.50;99.90
4739;DHT22;2383;48.632;10.156;2022-10-24T05:47:50;18.10;99.90
4739;DHT22;2383;48.632;10.156;2022-10-24T05:51:52;18.20;99.90
4739;DHT22;2383;48.632;10.156;2022-10-24T05:55:53;18.10;99.90
4739;DHT22;2383;48.632;10.156;2022-10-24T05:59:55;18.40;99.90
4739;DHT22;2383;48.632;10.156;2022-10-24T06:03:57;18.70;99.90
4739;DHT22;2383;48.632;10.156;2022-10-24T06:08:00;18.70;99.90
4739;DHT22;2383;48.632;10.156;2022-10-24T06:12:02;18.90;99.90
4739;DHT22;2383;48.632;10.156;2022-10-24T06:16:09;19.20;99.90
4739;DHT22;2383;48.632;10.156;2022-10-24T06:20:11;19.30;99.90
4739;DHT22;2383;48.632;10.156;2022-10-24T06:24:13;18.60;99.90
4739;DHT22;2383;48.632;10.156;2022-10-24T06:28:15;18.20;99.90
4739;DHT22;2383;48.632;10.156;2022-10-24T06:32:16;18.50;99.90
4739;DHT22;2383;48.632;10.156;2022-10-24T06:36:18;18.20;99.90
4739;DHT22;2383;48.632;10.156;2022-10-24T06:40:20;18.50;99.90
4739;DHT22;2383;48.632;10.156;2022-10-24T06:44:22;18.70;99.90
4739;DHT22;2383;48.632;10.156;2022-10-24T06:48:24;19.10;99.90
4739;DHT22;2383;48.632;10.156;2022-10-24T06:52:25;19.00;99.90
4739;DHT22;2383;48.632;10.156;2022-10-24T06:56:27;18.80;99.90
4739;DHT22;2383;48.632;10.156;2022-10-24T07:00:29;19.10;99.90
4739;DHT22;2383;48.632;10.156;2022-10-24T07:04:31;19.50;99.90
4739;DHT22;2383;48.632;10.156;2022-10-24T07:08:32;19.50;99.90
4739;DHT22;2383;48.632;10.156;2022-10-24T07:12:34;19.70;99.90
4739;DHT22;2383;48.632;10.156;2022-10-24T07:16:36;19.40;99.90
4739;DHT22;2383;48.632;10.156;2022-10-24T07:20:38;19.40;99.90
4739;DHT22;2383;48.632;10.156;2022-10-24T07:24:45;19.60;99.90
4739;DHT22;2383;48.632;10.156;2022-10-24T07:28:47;19.40;99.90
4739;DHT22;2383;48.632;10.156;2022-10-24T07:32:54;19.70;99.90
4739;DHT22;2383;48.632;10.156;2022-10-24T07:36:56;19.50;99.90
4739;DHT22;2383;48.632;10.156;2022-10-24T07:41:02;19.70;99.90
4739;DHT22;2383;48.632;10.156;2022-10-24T07:45:04;19.60;99.90
4739;DHT22;2383;48.632;10.156;2022-10-24T07:49:08;19.60;99.90
4739;DHT22;2383;48.632;10.156;2022-10-24T07:53:11;19.70;99.90
4739;DHT22;2383;48.632;10.156;2022-10-24T07:57:16;19.50;99.90
4739;DHT22;2383;48.632;10.156;2022-10-24T08:01:21;19.50;99.90
4739;DHT22;2383;48.632;10.156;2022-10-24T08:05:23;19.70;99.90
4739;DHT22;2383;48.632;10.156;2022-10-24T08:09:24;19.90;99.90
4739;DHT22;2383;48.632;10.156;2022-10-24T08:13:27;20.10;99.90
4739;DHT22;2383;48.632;10.156;2022-10-24T08:17:28;20.30;99.90
4739;DHT22;2383;48.632;10.156;2022-10-24T08:21:30;20.00;99.90
4739;DHT22;2383;48.632;10.156;2022-10-24T08:25:32;20.30;99.90
4739;DHT22;2383;48.632;10.156;2022-10-24T08:29:34;20.20;99.90
4739;DHT22;2383;48.632;10.156;2022-10-24T08:33:36;20.40;99.90
4739;DHT22;2383;48.632;10.156;2022-10-24T08:37:38;20.50;99.90
4739;DHT22;2383;48.632;10.156;2022-10-24T08:41:40;19.60;99.90
4739;DHT22;2383;48.632;10.156;2022-10-24T08:54:36;19.40;99.90
4739;DHT22;2383;48.632;10.156;2022-10-24T08:58:42;19.60;99.90
4739;DHT22;2383;48.632;10.156;2022-10-24T09:03:12;20.30;99.90
4739;DHT22;2383;48.632;10.156;2022-10-24T09:07:17;20.10;99.90
4739;DHT22;2383;48.632;10.156;2022-10-24T09:15:40;19.90;99.90
4739;DHT22;2383;48.632;10.156;2022-10-24T09:20:14;20.20;99.90
4739;DHT22;2383;48.632;10.156;2022-10-24T09:24:44;20.40;99.90
4739;DHT22;2383;48.632;10.156;2022-10-24T09:28:46;20.70;99.90
4739;DHT22;2383;48.632;10.156;2022-10-24T09:32:48;21.00;99.90
4739;DHT22;2383;48.632;10.156;2022-10-24T09:36:50;20.70;99.90
4739;DHT22;2383;48.632;10.156;2022-10-24T09:40:56;19.90;99.90
4739;DHT22;2383;48.632;10.156;2022-10-24T09:44:59;19.90;99.90
4739;DHT22;2383;48.632;10.156;2022-10-24T09:53:26;18.70;99.90
4739;DHT22;2383;48.632;10.156;2022-10-24T09:57:37;18.80;99.90
4739;DHT22;2383;48.632;10.156;2022-10-24T10:01:40;19.60;99.90
4739;DHT22;2383;48.632;10.156;2022-10-24T10:05:50;20.10;99.90
4739;DHT22;2383;48.632;10.156;2022-10-24T10:09:59;20.20;99.90
4739;DHT22;2383;48.632;10.156;2022-10-24T10:14:22;20.00;99.90
4739;DHT22;2383;48.632;10.156;2022-10-24T10:25:01;19.30;99.90
4739;DHT22;2383;48.632;10.156;2022-10-24T10:29:23;19.60;99.90
4739;DHT22;2383;48.632;10.156;2022-10-24T10:51:20;19.20;99.90
4739;DHT22;2383;48.632;10.156;2022-10-24T10:55:42;18.80;99.90
4739;DHT22;2383;48.632;10.156;2022-10-24T11:08:37;18.70;99.90
4739;DHT22;2383;48.632;10.156;2022-10-24T11:12:43;19.20;99.90
4739;DHT22;2383;48.632;10.156;2022-10-24T11:16:47;18.90;99.90
4739;DHT22;2383;48.632;10.156;2022-10-24T11:21:20;19.00;99.90
4739;DHT22;2383;48.632;10.156;2022-10-24T11:29:41;18.20;99.90
4739;DHT22;2383;48.632;10.156;2022-10-24T11:38:02;18.20;99.90
4739;DHT22;2383;48.632;10.156;2022-10-24T11:46:38;18.60;99.90
4739;DHT22;2383;48.632;10.156;2022-10-24T11:50:54;18.40;99.90
4739;DHT22;2383;48.632;10.156;2022-10-24T11:55:06;18.50;99.90
4739;DHT22;2383;48.632;10.156;2022-10-24T11:59:16;18.50;99.90
4739;DHT22;2383;48.632;10.156;2022-10-24T12:16:03;19.00;99.90
4739;DHT22;2383;48.632;10.156;2022-10-24T12:20:16;19.20;99.90
4739;DHT22;2383;48.632;10.156;2022-10-24T12:24:31;19.10;99.90
4739;DHT22;2383;48.632;10.156;2022-10-24T12:28:36;18.80;99.90
4739;DHT22;2383;48.632;10.156;2022-10-24T12:32:41;18.50;99.90
4739;DHT22;2383;48.632;10.156;2022-10-24T12:45:30;18.50;99.90
4739;DHT22;2383;48.632;10.156;2022-10-24T12:49:33;18.80;99.90
4739;DHT22;2383;48.632;10.156;2022-10-24T12:53:37;18.90;99.90
4739;DHT22;2383;48.632;10.156;2022-10-24T12:57:44;18.70;99.90
4739;DHT22;2383;48.632;10.156;2022-10-24T13:01:49;19.30;99.90
4739;DHT22;2383;48.632;10.156;2022-10-24T13:05:56;19.20;99.90
4739;DHT22;2383;48.632;10.156;2022-10-24T13:18:55;18.90;99.90
4739;DHT22;2383;48.632;10.156;2022-10-24T13:23:04;18.80;99.90
4739;DHT22;2383;48.632;10.156;2022-10-24T13:35:22;19.30;99.90
4739;DHT22;2383;48.632;10.156;2022-10-24T13:39:28;19.50;99.90
4739;DHT22;2383;48.632;10.156;2022-10-24T13:43:40;19.40;99.90
4739;DHT22;2383;48.632;10.156;2022-10-24T13:47:47;19.60;99.90
4739;DHT22;2383;48.632;10.156;2022-10-24T13:51:53;19.40;99.90
4739;DHT22;2383;48.632;10.156;2022-10-24T13:56:00;19.80;99.90
4739;DHT22;2383;48.632;10.156;2022-10-24T14:00:15;19.70;99.90
4739;DHT22;2383;48.632;10.156;2022-10-24T14:04:19;19.70;99.90
4739;DHT22;2383;48.632;10.156;2022-10-24T14:08:49;19.60;99.90
4739;DHT22;2383;48.632;10.156;2022-10-24T14:13:13;20.10;99.90
4739;DHT22;2383;48.632;10.156;2022-10-24T14:17:31;19.90;99.90
4739;DHT22;2383;48.632;10.156;2022-10-24T14:21:42;19.80;99.90
4739;DHT22;2383;48.632;10.156;2022-10-24T14:25:56;19.30;99.90
4739;DHT22;2383;48.632;10.156;2022-10-24T14:30:03;19.50;99.90
4739;DHT22;2383;48.632;10.156;2022-10-24T14:34:05;19.30;99.90
4739;DHT22;2383;48.632;10.156;2022-10-24T14:38:13;19.30;99.90
4739;DHT22;2383;48.632;10.156;2022-10-24T14:42:16;19.50;99.90
4739;DHT22;2383;48.632;10.156;2022-10-24T14:50:42;19.90;99.90
4739;DHT22;2383;48.632;10.156;2022-10-24T15:03:54;19.20;99.90
4739;DHT22;2383;48.632;10.156;2022-10-24T15:12:38;18.20;99.90
4739;DHT22;2383;48.632;10.156;2022-10-24T15:16:40;18.30;99.90
4739;DHT22;2383;48.632;10.156;2022-10-24T15:20:44;18.10;99.90
4739;DHT22;2383;48.632;10.156;2022-10-24T15:24:50;18.10;99.90
4739;DHT22;2383;48.632;10.156;2022-10-24T15:28:54;18.30;99.90
4739;DHT22;2383;48.632;10.156;2022-10-24T15:32:57;18.50;99.90
4739;DHT22;2383;48.632;10.156;2022-10-24T15:36:59;18.40;99.90
4739;DHT22;2383;48.632;10.156;2022-10-24T15:41:03;18.00;99.90
4739;DHT22;2383;48.632;10.156;2022-10-24T15:45:12;18.20;99.90
4739;DHT22;2383;48.632;10.156;2022-10-24T15:49:15;18.60;99.90
4739;DHT22;2383;48.632;10.156;2022-10-24T15:53:19;19.20;99.90
4739;DHT22;2383;48.632;10.156;2022-10-24T15:57:21;18.40;99.90
4739;DHT22;2383;48.632;10.156;2022-10-24T16:01:28;18.10;99.90
4739;DHT22;2383;48.632;10.156;2022-10-24T16:05:36;18.50;99.90
4739;DHT22;2383;48.632;10.156;2022-10-24T16:09:40;18.20;99.90
4739;DHT22;2383;48.632;10.156;2022-10-24T16:13:46;18.70;99.90
4739;DHT22;2383;48.632;10.156;2022-10-24T16:17:48;18.60;99.90
4739;DHT22;2383;48.632;10.156;2022-10-24T16:21:53;18.60;99.90
4739;DHT22;2383;48.632;10.156;2022-10-24T16:25:59;18.30;99.90
4739;DHT22;2383;48.632;10.156;2022-10-24T16:30:01;18.00;99.90
4739;DHT22;2383;48.632;10.156;2022-10-24T16:34:14;17.80;99.90
4739;DHT22;2383;48.632;10.156;2022-10-24T16:38:17;18.30;99.90
4739;DHT22;2383;48.632;10.156;2022-10-24T16:42:19;18.10;99.90
4739;DHT22;2383;48.632;10.156;2022-10-24T16:46:25;18.00;99.90
4739;DHT22;2383;48.632;10.156;2022-10-24T16:50:29;18.30;99.90
4739;DHT22;2383;48.632;10.156;2022-10-24T16:54:31;18.20;99.90
4739;DHT22;2383;48.632;10.156;2022-10-24T16:58:33;18.20;99.90
4739;DHT22;2383;48.632;10.156;2022-10-24T17:02:35;17.90;99.90
4739;DHT22;2383;48.632;10.156;2022-10-24T17:06:36;18.10;99.90
4739;DHT22;2383;48.632;10.156;2022-10-24T17:10:38;18.30;99.90
4739;DHT22;2383;48.632;10.156;2022-10-24T17:14:40;18.30;99.90
4739;DHT22;2383;48.632;10.156;2022-10-24T17:18:42;18.40;99.90
4739;DHT22;2383;48.632;10.156;2022-10-24T17:22:52;18.30;99.90
4739;DHT22;2383;48.632;10.156;2022-10-24T17:26:54;18.00;99.90
4739;DHT22;2383;48.632;10.156;2022-10-24T17:30:56;18.00;99.90
4739;DHT22;2383;48.632;10.156;2022-10-24T17:34:59;18.20;99.90
4739;DHT22;2383;48.632;10.156;2022-10-24T17:43:21;18.10;99.90
4739;DHT22;2383;48.632;10.156;2022-10-24T17:47:23;18.20;99.90
4739;DHT22;2383;48.632;10.156;2022-10-24T17:51:26;18.50;99.90
4739;DHT22;2383;48.632;10.156;2022-10-24T17:55:27;18.30;99.90
4739;DHT22;2383;48.632;10.156;2022-10-24T17:59:48;18.20;99.90
4739;DHT22;2383;48.632;10.156;2022-10-24T18:03:49;18.30;99.90
4739;DHT22;2383;48.632;10.156;2022-10-24T18:07:51;18.30;99.90
4739;DHT22;2383;48.632;10.156;2022-10-24T18:11:54;18.60;99.90
4739;DHT22;2383;48.632;10.156;2022-10-24T18:15:55;18.60;99.90
4739;DHT22;2383;48.632;10.156;2022-10-24T18:19:57;18.20;99.90
4739;DHT22;2383;48.632;10.156;2022-10-24T18:23:59;18.40;99.90
4739;DHT22;2383;48.632;10.156;2022-10-24T18:28:01;18.60;99.90
4739;DHT22;2383;48.632;10.156;2022-10-24T18:32:02;18.60;99.90
4739;DHT22;2383;48.632;10.156;2022-10-24T18:36:12;18.70;99.90
4739;DHT22;2383;48.632;10.156;2022-10-24T18:40:16;18.80;99.90
4739;DHT22;2383;48.632;10.156;2022-10-24T18:44:28;19.00;99.90
4739;DHT22;2383;48.632;10.156;2022-10-24T18:48:31;19.00;99.90
4739;DHT22;2383;48.632;10.156;2022-10-24T18:53:02;18.90;99.90
4739;DHT22;2383;48.632;10.156;2022-10-24T18:57:20;18.60;99.90
4739;DHT22;2383;48.632;10.156;2022-10-24T19:01:31;18.60;99.90
4739;DHT22;2383;48.632;10.156;2022-10-24T19:09:55;18.40;99.90
4739;DHT22;2383;48.632;10.156;2022-10-24T19:13:57;18.50;99.90
4739;DHT22;2383;48.632;10.156;2022-10-24T19:17:58;18.70;99.90
4739;DHT22;2383;48.632;10.156;2022-10-24T19:22:00;18.90;99.90
4739;DHT22;2383;48.632;10.156;2022-10-24T19:26:02;18.40;99.90
4739;DHT22;2383;48.632;10.156;2022-10-24T19:30:04;18.50;99.90
4739;DHT22;2383;48.632;10.156;2022-10-24T19:34:08;18.20;99.90
4739;DHT22;2383;48.632;10.156;2022-10-24T19:38:10;18.40;99.90
4739;DHT22;2383;48.632;10.156;2022-10-24T19:42:13;18.00;99.90
4739;DHT22;2383;48.632;10.156;2022-10-24T19:46:16;18.40;99.90
4739;DHT22;2383;48.632;10.156;2022-10-24T19:50:21;18.70;99.90
4739;DHT22;2383;48.632;10.156;2022-10-24T19:54:23;18.80;99.90
4739;DHT22;2383;48.632;10.156;2022-10-24T19:58:25;19.10;99.90
4739;DHT22;2383;48.632;10.156;2022-10-24T20:02:26;19.20;99.90
4739;DHT22;2383;48.632;10.156;2022-10-24T20:06:28;19.30;99.90
4739;DHT22;2383;48.632;10.156;2022-10-24T20:10:31;19.60;99.90
4739;DHT22;2383;48.632;10.156;2022-10-24T20:14:34;19.40;99.90
4739;DHT22;2383;48.632;10.156;2022-10-24T20:18:36;19.30;99.90
4739;DHT22;2383;48.632;10.156;2022-10-24T20:22:39;19.20;99.90
4739;DHT22;2383;48.632;10.156;2022-10-24T20:26:43;19.30;99.90
4739;DHT22;2383;48.632;10.156;2022-10-24T20:30:45;19.40;99.90
4739;DHT22;2383;48.632;10.156;2022-10-24T20:34:47;19.20;99.90
4739;DHT22;2383;48.632;10.156;2022-10-24T20:38:49;19.20;99.90
4739;DHT22;2383;48.632;10.156;2022-10-24T20:42:51;19.30;99.90
4739;DHT22;2383;48.632;10.156;2022-10-24T20:46:53;19.00;99.90
4739;DHT22;2383;48.632;10.156;2022-10-24T20:51:03;19.00;99.90
4739;DHT22;2383;48.632;10.156;2022-10-24T20:55:05;18.90;99.90
4739;DHT22;2383;48.632;10.156;2022-10-24T20:59:27;19.00;99.90
4739;DHT22;2383;48.632;10.156;2022-10-24T21:03:28;19.20;99.90
4739;DHT22;2383;48.632;10.156;2022-10-24T21:07:30;19.20;99.90
4739;DHT22;2383;48.632;10.156;2022-10-24T21:11:33;19.20;99.90
4739;DHT22;2383;48.632;10.156;2022-10-24T21:15:35;19.20;99.90
4739;DHT22;2383;48.632;10.156;2022-10-24T21:19:37;19.00;99.90
4739;DHT22;2383;48.632;10.156;2022-10-24T21:23:39;19.00;99.90
4739;DHT22;2383;48.632;10.156;2022-10-24T21:27:44;19.00;99.90
4739;DHT22;2383;48.632;10.156;2022-10-24T21:31:50;19.30;99.90
4739;DHT22;2383;48.632;10.156;2022-10-24T21:35:52;17.40;99.90
4739;DHT22;2383;48.632;10.156;2022-10-24T21:39:53;16.90;99.90
4739;DHT22;2383;48.632;10.156;2022-10-24T21:43:55;16.70;99.90
4739;DHT22;2383;48.632;10.156;2022-10-24T21:47:59;16.60;99.90
4739;DHT22;2383;48.632;10.156;2022-10-24T21:52:00;17.20;99.90
4739;DHT22;2383;48.632;10.156;2022-10-24T21:56:04;16.80;99.90
4739;DHT22;2383;48.632;10.156;2022-10-24T22:00:08;16.80;99.90
4739;DHT22;2383;48.632;10.156;2022-10-24T22:04:11;17.20;99.90
4739;DHT22;2383;48.632;10.156;2022-10-24T22:08:13;17.70;99.90
4739;DHT22;2383;48.632;10.156;2022-10-24T22:12:15;18.10;99.90
4739;DHT22;2383;48.632;10.156;2022-10-24T22:16:19;17.80;99.90
4739;DHT22;2383;48.632;10.156;2022-10-24T22:20:21;17.80;99.90
4739;DHT22;2383;48.632;10.156;2022-10-24T22:24:23;18.40;99.90
4739;DHT22;2383;48.632;10.156;2022-10-24T22:28:25;17.90;99.90
4739;DHT22;2383;48.632;10.156;2022-10-24T22:32:27;18.00;99.90
4739;DHT22;2383;48.632;10.156;2022-10-24T22:40:34;18.20;99.90
4739;DHT22;2383;48.632;10.156;2022-10-24T22:44:36;18.00;99.90
4739;DHT22;2383;48.632;10.156;2022-10-24T22:48:40;17.80;99.90
4739;DHT22;2383;48.632;10.156;2022-10-24T22:52:45;17.70;99.90
4739;DHT22;2383;48.632;10.156;2022-10-24T22:56:47;17.80;99.90
4739;DHT22;2383;48.632;10.156;2022-10-24T23:00:53;17.60;99.90
4739;DHT22;2383;48.632;10.156;2022-10-24T23:09:09;17.20;99.90
4739;DHT22;2383;48.632;10.156;2022-10-24T23:13:12;17.10;99.90
4739;DHT22;2383;48.632;10.156;2022-10-24T23:17:22;17.10;99.90
4739;DHT22;2383;48.632;10.156;2022-10-24T23:21:35;17.10;99.90
4739;DHT22;2383;48.632;10.156;2022-10-24T23:25:40;17.00;99.90
4739;DHT22;2383;48.632;10.156;2022-10-24T23:29:45;16.70;99.90
4739;DHT22;2383;48.632;10.156;2022-10-24T23:33:48;16.80;99.90
4739;DHT22;2383;48.632;10.156;2022-10-24T23:37:51;16.90;99.90
4739;DHT22;2383;48.632;10.156;2022-10-24T23:41:53;16.70;99.90
4739;DHT22;2383;48.632;10.156;2022-10-24T23:45:59;16.50;99.90
4739;DHT22;2383;48.632;10.156;2022-10-24T23:54:39;16.30;99.90
4739;DHT22;2383;48.632;10.156;2022-10-24T23:58:40;16.20;99.90
